Time;durP1;ratioP1;P1;durP2;ratioP2;P2;SDS_P1;SDS_P2;PMS_P1;PMS_P2;Temp;Humidity;BMP_temperature;BMP_pressure;BME280_temperature;BME280_humidity;BME280_pressure;Samples;Min_cycle;Max_cycle;Signal;HPM_P1;HPM_P2
2021/03/10 00:02:16;;;;;;;23.17;17.75;;;4.40;99.90;;;;;;5111750;28;20043;-56
2021/03/10 00:04:41;;;;;;;24.33;18.00;;;4.40;99.90;;;;;;5111693;28;20508;-56
2021/03/10 00:07:07;;;;;;;23.10;16.88;;;4.40;99.90;;;;;;5111525;28;20500;-56
2021/03/10 00:09:33;;;;;;;20.58;15.02;;;4.40;99.90;;;;;;5111592;28;20044;-56
2021/03/10 00:11:58;;;;;;;21.05;15.20;;;4.40;99.90;;;;;;5111380;28;20146;-56
2021/03/10 00:14:24;;;;;;;20.25;15.05;;;4.40;99.90;;;;;;5111489;28;20043;-56
2021/03/10 00:16:50;;;;;;;20.08;14.98;;;4.40;99.90;;;;;;5111715;28;20046;-56
2021/03/10 00:19:16;;;;;;;19.40;14.75;;;4.30;99.90;;;;;;5093510;28;20400;-56
2021/03/10 00:21:41;;;;;;;19.85;14.63;;;4.30;99.90;;;;;;5111432;28;20046;-56
2021/03/10 00:24:08;;;;;;;18.13;14.63;;;4.40;99.90;;;;;;5111508;28;20044;-56
2021/03/10 00:26:33;;;;;;;17.65;14.18;;;4.40;99.90;;;;;;5111364;28;20039;-56
2021/03/10 00:28:59;;;;;;;17.80;13.45;;;4.50;99.90;;;;;;5111613;28;20046;-56
2021/03/10 00:31:25;;;;;;;17.55;13.60;;;4.40;99.90;;;;;;5113391;28;20055;-56
2021/03/10 00:33:51;;;;;;;18.58;13.98;;;4.40;99.90;;;;;;5115382;28;20377;-56
2021/03/10 00:36:17;;;;;;;16.85;13.77;;;4.40;99.90;;;;;;5115206;28;20393;-56
2021/03/10 00:38:42;;;;;;;18.70;13.88;;;4.40;99.90;;;;;;5115179;28;20384;-56
2021/03/10 00:41:08;;;;;;;16.73;13.48;;;4.40;99.90;;;;;;5114881;28;20047;-56
2021/03/10 00:43:34;;;;;;;18.58;14.70;;;4.40;99.90;;;;;;5115154;28;20043;-56
2021/03/10 00:45:59;;;;;;;18.63;14.00;;;4.30;99.90;;;;;;5115190;28;20036;-56
2021/03/10 00:48:25;;;;;;;18.85;13.93;;;4.30;99.90;;;;;;5115176;28;20047;-56
2021/03/10 00:50:51;;;;;;;18.95;14.13;;;4.40;99.90;;;;;;5115165;28;20043;-56
2021/03/10 00:53:17;;;;;;;18.40;13.35;;;4.30;99.90;;;;;;5114925;28;20397;-56
2021/03/10 00:55:42;;;;;;;16.75;13.52;;;4.30;99.90;;;;;;5114765;28;20375;-56
2021/03/10 00:58:08;;;;;;;18.08;13.82;;;4.30;99.90;;;;;;5115004;28;20042;-56
2021/03/10 01:00:34;;;;;;;17.08;14.02;;;4.30;99.90;;;;;;5114790;28;20481;-56
2021/03/10 01:02:59;;;;;;;18.27;14.15;;;4.20;99.90;;;;;;5114741;28;20046;-56
2021/03/10 01:05:25;;;;;;;16.48;12.80;;;4.20;99.90;;;;;;5114768;28;20055;-56
2021/03/10 01:07:51;;;;;;;18.65;13.50;;;4.20;99.90;;;;;;5114709;28;20043;-56
2021/03/10 01:10:17;;;;;;;17.25;13.45;;;4.20;99.90;;;;;;5114865;28;20105;-56
2021/03/10 01:12:43;;;;;;;16.52;13.48;;;4.20;99.90;;;;;;5114962;28;20044;-56
2021/03/10 01:15:15;;;;;;;19.52;14.00;;;4.20;99.90;;;;;;5114833;28;20051;-56
2021/03/10 01:17:41;;;;;;;19.35;14.13;;;4.20;99.90;;;;;;5114718;28;20051;-56
2021/03/10 01:20:15;;;;;;;18.60;13.10;;;4.20;99.90;;;;;;5114469;28;20435;-56
2021/03/10 01:22:41;;;;;;;15.00;11.27;;;4.10;99.90;;;;;;5114394;28;20131;-56
2021/03/10 01:25:08;;;;;;;18.38;12.25;;;4.10;99.90;;;;;;5114516;28;20131;-56
2021/03/10 01:27:34;;;;;;;16.13;12.82;;;4.20;99.90;;;;;;5114317;28;20552;-56
2021/03/10 01:30:00;;;;;;;14.27;12.13;;;4.20;99.90;;;;;;5114191;28;20110;-56
2021/03/10 01:32:26;;;;;;;15.88;12.70;;;4.20;99.90;;;;;;5114373;28;20131;-56
2021/03/10 01:34:52;;;;;;;16.95;12.13;;;4.20;99.90;;;;;;5095584;28;20046;-56
2021/03/10 01:37:18;;;;;;;15.95;12.00;;;4.20;99.90;;;;;;5114063;28;20036;-56
2021/03/10 01:39:44;;;;;;;15.63;12.20;;;4.20;99.90;;;;;;5114242;28;20051;-56
2021/03/10 01:42:13;;;;;;;16.77;13.38;;;4.20;99.90;;;;;;5113346;28;20134;-56
2021/03/10 01:44:39;;;;;;;14.23;12.25;;;4.20;99.90;;;;;;5114043;28;20404;-56
2021/03/10 01:47:08;;;;;;;16.13;12.60;;;4.30;99.90;;;;;;5113983;28;20047;-56
2021/03/10 01:49:34;;;;;;;15.43;11.77;;;4.30;99.90;;;;;;5113893;28;20036;-56
2021/03/10 01:52:01;;;;;;;14.48;12.00;;;4.30;99.90;;;;;;5113815;28;20101;-56
2021/03/10 01:54:27;;;;;;;15.57;12.52;;;4.30;99.90;;;;;;5114025;28;20118;-56
2021/03/10 01:56:53;;;;;;;15.88;11.80;;;4.30;99.90;;;;;;5113894;28;20470;-56
2021/03/10 01:59:20;;;;;;;14.77;11.85;;;4.20;99.90;;;;;;5113757;28;20112;-56
2021/03/10 02:01:46;;;;;;;14.93;12.05;;;4.20;99.90;;;;;;5113566;28;20043;-56
2021/03/10 02:04:12;;;;;;;14.10;11.07;;;4.30;99.90;;;;;;5113736;28;20382;-56
2021/03/10 02:06:57;;;;;;;13.80;11.27;;;4.20;99.90;;;;;;5113616;28;20067;-56
2021/03/10 02:09:34;;;;;;;13.48;10.73;;;4.20;99.90;;;;;;5113778;28;20040;-56
2021/03/10 02:12:18;;;;;;;14.35;11.50;;;4.30;99.90;;;;;;5113591;28;20054;-56
2021/03/10 02:15:08;;;;;;;13.57;10.57;;;4.20;99.90;;;;;;5113432;28;20044;-56
2021/03/10 02:17:43;;;;;;;13.38;10.68;;;4.20;99.90;;;;;;5113478;28;20516;-56
2021/03/10 02:20:38;;;;;;;13.00;10.32;;;4.20;99.90;;;;;;5113317;28;20130;-56
2021/03/10 02:23:46;;;;;;;12.48;10.35;;;4.20;99.90;;;;;;5113781;28;20051;-56
2021/03/10 02:26:31;;;;;;;13.88;10.73;;;4.30;99.90;;;;;;5113240;28;20088;-56
2021/03/10 02:29:06;;;;;;;12.85;10.07;;;4.30;99.90;;;;;;5113130;28;20096;-56
2021/03/10 02:31:38;;;;;;;12.15;9.35;;;4.20;99.90;;;;;;5112959;28;20059;-56
2021/03/10 02:34:06;;;;;;;13.65;9.60;;;4.10;99.90;;;;;;5113115;28;20461;-56
2021/03/10 02:36:33;;;;;;;13.60;11.07;;;4.20;99.90;;;;;;5113185;28;20055;-56
2021/03/10 02:39:03;;;;;;;16.50;11.75;;;4.10;99.90;;;;;;5113071;28;20051;-56
2021/03/10 02:41:31;;;;;;;14.10;11.00;;;4.10;99.90;;;;;;5112665;28;20077;-56
2021/03/10 02:43:58;;;;;;;14.00;11.43;;;4.00;99.90;;;;;;5112831;28;20035;-56
2021/03/10 02:46:25;;;;;;;16.00;11.55;;;4.00;99.90;;;;;;5112717;28;20553;-56
2021/03/10 02:48:52;;;;;;;15.50;11.80;;;4.00;99.90;;;;;;5113045;28;20044;-56
2021/03/10 02:51:19;;;;;;;14.27;11.40;;;3.90;99.90;;;;;;5112829;28;20051;-56
2021/03/10 02:53:48;;;;;;;16.77;11.98;;;3.90;99.90;;;;;;5112726;28;20073;-56
2021/03/10 02:56:13;;;;;;;15.77;12.43;;;3.80;99.90;;;;;;5112585;28;20040;-56
2021/03/10 02:58:41;;;;;;;14.90;12.18;;;3.80;99.90;;;;;;5112681;28;20046;-55
2021/03/10 03:01:11;;;;;;;19.48;13.18;;;3.80;99.90;;;;;;5112583;28;20068;-56
2021/03/10 03:03:37;;;;;;;15.60;12.20;;;3.70;99.90;;;;;;5112493;28;20465;-56
2021/03/10 03:06:03;;;;;;;16.55;12.82;;;3.70;99.90;;;;;;5112551;28;20035;-56
2021/03/10 03:08:30;;;;;;;17.00;13.27;;;3.70;99.90;;;;;;5112588;28;20453;-56
2021/03/10 03:10:57;;;;;;;17.63;12.77;;;3.60;99.90;;;;;;5112451;28;20134;-55
2021/03/10 03:13:24;;;;;;;17.10;13.40;;;3.60;99.90;;;;;;5112306;28;20473;-56
2021/03/10 03:15:54;;;;;;;16.48;13.10;;;3.60;99.90;;;;;;5112586;28;20130;-56
2021/03/10 03:18:24;;;;;;;15.52;12.55;;;3.60;99.90;;;;;;5112272;28;20481;-56
2021/03/10 03:20:51;;;;;;;16.83;13.50;;;3.50;99.90;;;;;;5112290;28;20047;-56
2021/03/10 03:23:19;;;;;;;16.40;12.75;;;3.40;99.90;;;;;;5112429;28;20076;-56
2021/03/10 03:25:45;;;;;;;17.70;13.35;;;3.40;99.90;;;;;;5112085;28;20047;-56
2021/03/10 03:28:17;;;;;;;16.33;12.32;;;3.30;99.90;;;;;;5112378;28;20489;-56
2021/03/10 03:30:44;;;;;;;17.58;12.00;;;3.40;99.90;;;;;;5112178;28;20126;-56
2021/03/10 03:33:15;;;;;;;17.10;12.65;;;3.40;99.90;;;;;;5112099;28;20493;-56
2021/03/10 03:35:42;;;;;;;16.70;12.50;;;3.30;99.90;;;;;;5112162;28;20481;-55
2021/03/10 03:38:09;;;;;;;17.13;13.48;;;3.20;99.90;;;;;;5112092;28;20040;-56
2021/03/10 03:40:35;;;;;;;13.98;11.30;;;3.20;99.90;;;;;;5111808;28;20075;-55
2021/03/10 03:43:06;;;;;;;15.85;12.02;;;3.10;99.90;;;;;;5112430;28;20082;-56
2021/03/10 03:45:32;;;;;;;17.27;12.32;;;3.10;99.90;;;;;;5112035;28;20036;-56
2021/03/10 03:47:58;;;;;;;15.48;11.85;;;3.10;99.90;;;;;;5112135;28;20439;-56
2021/03/10 03:50:27;;;;;;;16.35;12.43;;;3.10;99.90;;;;;;5112050;28;20047;-56
2021/03/10 03:52:53;;;;;;;17.77;13.13;;;3.10;99.90;;;;;;5111810;28;20043;-55
2021/03/10 03:55:20;;;;;;;16.92;10.75;;;3.10;99.90;;;;;;5111920;28;20485;-56
2021/03/10 03:57:45;;;;;;;17.77;12.48;;;3.10;99.90;;;;;;5112096;28;20050;-56
2021/03/10 04:00:17;;;;;;;15.65;12.65;;;3.10;99.90;;;;;;5112015;28;20126;-55
2021/03/10 04:02:44;;;;;;;17.35;12.25;;;3.00;99.90;;;;;;5093871;28;20096;-56
2021/03/10 04:05:11;;;;;;;17.55;12.60;;;2.90;99.90;;;;;;5111714;28;20484;-56
2021/03/10 04:08:07;;;;;;;17.17;13.10;;;2.70;99.90;;;;;;5097617;28;20088;-56
2021/03/10 04:10:38;;;;;;;16.95;12.55;;;2.70;99.90;;;;;;5033256;28;20422;-55
2021/03/10 04:13:04;;;;;;;16.42;12.20;;;2.80;99.90;;;;;;5033036;28;20045;-56
2021/03/10 04:15:32;;;;;;;17.73;12.82;;;2.80;99.90;;;;;;5032792;28;20052;-56
2021/03/10 04:17:58;;;;;;;16.60;13.02;;;2.70;99.90;;;;;;5032970;28;20491;-56
2021/03/10 04:20:24;;;;;;;18.20;12.50;;;2.80;99.90;;;;;;5032750;28;20139;-56
2021/03/10 04:22:51;;;;;;;17.90;13.35;;;2.80;99.90;;;;;;5032908;28;20475;-56
2021/03/10 04:25:17;;;;;;;15.85;12.05;;;2.80;99.90;;;;;;5032705;28;20041;-56
2021/03/10 04:27:44;;;;;;;17.08;12.15;;;2.70;99.90;;;;;;5032736;28;20164;-55
2021/03/10 04:30:12;;;;;;;15.73;12.38;;;2.70;99.90;;;;;;5016403;28;20408;-56
2021/03/10 04:32:37;;;;;;;16.35;12.25;;;2.70;99.90;;;;;;5032613;28;20049;-56
2021/03/10 04:35:04;;;;;;;19.33;13.05;;;2.80;99.90;;;;;;5032767;28;20049;-56
2021/03/10 04:37:30;;;;;;;19.73;13.05;;;2.80;99.90;;;;;;5032615;28;20149;-56
2021/03/10 04:39:56;;;;;;;22.98;14.02;;;2.80;99.90;;;;;;5032247;28;20108;-55
2021/03/10 04:42:22;;;;;;;19.02;13.60;;;2.80;99.90;;;;;;5032909;28;20532;-56
2021/03/10 04:44:48;;;;;;;18.13;13.77;;;2.80;99.90;;;;;;5032520;28;20128;-56
2021/03/10 04:47:13;;;;;;;19.42;12.88;;;2.80;99.90;;;;;;5059171;28;20044;-56
2021/03/10 04:49:39;;;;;;;19.00;13.65;;;2.70;99.90;;;;;;5073114;28;20072;-56
2021/03/10 04:52:05;;;;;;;17.48;12.82;;;2.70;99.90;;;;;;5074560;28;20048;-56
2021/03/10 04:54:30;;;;;;;16.75;12.60;;;2.60;99.90;;;;;;5074260;28;20039;-56
2021/03/10 04:56:56;;;;;;;19.45;13.25;;;2.60;99.90;;;;;;5074339;28;20501;-55
2021/03/10 04:59:22;;;;;;;16.27;12.30;;;2.60;99.90;;;;;;5074354;28;20040;-56
2021/03/10 05:01:48;;;;;;;29.98;14.02;;;2.60;99.90;;;;;;5074030;28;20048;-56
2021/03/10 05:04:13;;;;;;;18.95;14.02;;;2.60;99.90;;;;;;5074241;28;20097;-56
2021/03/10 05:06:40;;;;;;;18.15;13.93;;;2.60;99.90;;;;;;5074296;28;20036;-55
2021/03/10 05:09:07;;;;;;;20.23;14.27;;;2.60;99.90;;;;;;5074140;28;20042;-56
2021/03/10 05:11:34;;;;;;;19.67;13.77;;;2.60;99.90;;;;;;5074019;28;20117;-56
2021/03/10 05:14:00;;;;;;;19.73;14.50;;;2.60;99.90;;;;;;5073986;28;20036;-56
2021/03/10 05:16:26;;;;;;;17.77;14.05;;;2.60;99.90;;;;;;5074032;28;20052;-56
2021/03/10 05:18:52;;;;;;;21.13;15.50;;;2.60;99.90;;;;;;5073111;28;20131;-56
2021/03/10 05:21:18;;;;;;;21.73;14.43;;;2.60;99.90;;;;;;5074137;28;20114;-56
2021/03/10 05:23:44;;;;;;;20.75;15.32;;;2.60;99.90;;;;;;5073788;28;20036;-56
2021/03/10 05:26:13;;;;;;;22.48;14.52;;;2.70;99.90;;;;;;5073862;28;20051;-56
2021/03/10 05:28:39;;;;;;;;;;;2.70;99.90;;;;;;5074092;28;20450;-55
2021/03/10 05:31:05;;;;;;;22.52;15.48;;;2.70;99.90;;;;;;5073898;28;20293;-56
2021/03/10 05:33:31;;;;;;;21.27;15.43;;;2.80;99.90;;;;;;5073638;28;20040;-56
2021/03/10 05:35:58;;;;;;;22.35;15.60;;;2.70;99.90;;;;;;5073624;28;20051;-55
2021/03/10 05:38:25;;;;;;;22.10;15.45;;;2.80;99.90;;;;;;5073542;28;20070;-55
2021/03/10 05:40:53;;;;;;;21.33;15.52;;;2.80;99.90;;;;;;5088938;28;20134;-56
2021/03/10 05:43:20;;;;;;;21.05;14.60;;;2.80;99.90;;;;;;5113905;28;20131;-56
2021/03/10 05:45:46;;;;;;;23.92;16.77;;;2.90;99.90;;;;;;5113972;28;20039;-55
2021/03/10 05:48:12;;;;;;;23.02;16.23;;;2.90;99.90;;;;;;5113957;28;20036;-56
2021/03/10 05:50:38;;;;;;;22.15;16.25;;;2.90;99.90;;;;;;5114205;28;20047;-56
2021/03/10 05:53:09;;;;;;;21.25;15.68;;;3.00;99.90;;;;;;5114061;28;20052;-55
2021/03/10 05:55:35;;;;;;;23.55;15.43;;;3.00;99.90;;;;;;5113757;28;20543;-55
2021/03/10 05:58:00;;;;;;;20.00;14.48;;;3.00;99.90;;;;;;5113851;28;20032;-56
2021/03/10 06:00:26;;;;;;;24.27;16.98;;;3.00;99.90;;;;;;5113903;28;20047;-55
2021/03/10 06:02:52;;;;;;;23.67;16.48;;;3.10;99.90;;;;;;5114219;28;20595;-56
2021/03/10 06:05:23;;;;;;;22.83;16.23;;;3.10;99.90;;;;;;5114004;28;20047;-56
2021/03/10 06:08:02;;;;;;;22.77;16.48;;;3.10;99.90;;;;;;5113488;28;20537;-56
2021/03/10 06:10:47;;;;;;;21.83;16.37;;;3.10;99.90;;;;;;5113479;28;20085;-55
2021/03/10 06:13:20;;;;;;;23.23;15.50;;;3.20;99.90;;;;;;5113569;28;20738;-56
2021/03/10 06:15:48;;;;;;;24.15;16.83;;;3.30;99.90;;;;;;5113491;28;20044;-56
2021/03/10 06:18:33;;;;;;;26.45;16.55;;;3.30;99.90;;;;;;5113417;28;20388;-56
2021/03/10 06:21:14;;;;;;;25.20;16.45;;;3.30;99.90;;;;;;5113469;28;20123;-56
2021/03/10 06:24:02;;;;;;;24.92;16.13;;;3.30;99.90;;;;;;5113472;28;20063;-56
2021/03/10 06:26:31;;;;;;;26.15;17.00;;;3.30;99.90;;;;;;5113142;28;20496;-56
2021/03/10 06:28:59;;;;;;;23.85;16.23;;;3.30;99.90;;;;;;5112856;28;20044;-56
2021/03/10 06:31:31;;;;;;;26.38;18.23;;;3.30;99.90;;;;;;5113286;28;20090;-57
2021/03/10 06:34:11;;;;;;;28.27;16.65;;;3.30;99.90;;;;;;5112898;28;20028;-56
2021/03/10 06:36:43;;;;;;;23.15;15.95;;;3.30;99.90;;;;;;5113064;28;20043;-56
2021/03/10 06:39:11;;;;;;;25.73;16.63;;;3.20;99.90;;;;;;5113003;28;20469;-56
2021/03/10 06:41:43;;;;;;;24.42;15.95;;;3.20;99.90;;;;;;5112574;28;20047;-55
2021/03/10 06:44:20;;;;;;;23.48;16.63;;;3.30;99.90;;;;;;5113219;28;20108;-56
2021/03/10 06:47:05;;;;;;;21.80;15.95;;;3.30;99.90;;;;;;5112633;28;20484;-55
2021/03/10 06:49:32;;;;;;;24.38;16.55;;;3.30;99.90;;;;;;5112758;28;20481;-56
2021/03/10 06:52:00;;;;;;;23.60;16.83;;;3.30;99.90;;;;;;5112668;28;20433;-56
2021/03/10 06:54:28;;;;;;;22.27;15.68;;;3.40;99.90;;;;;;5112567;28;20035;-55
2021/03/10 06:57:01;;;;;;;22.52;16.42;;;3.40;99.90;;;;;;5112652;28;20046;-56
2021/03/10 06:59:47;;;;;;;25.10;15.95;;;3.40;99.90;;;;;;5112714;28;20035;-56
2021/03/10 07:02:21;;;;;;;22.88;16.98;;;3.40;99.90;;;;;;5112669;28;20047;-56
2021/03/10 07:04:49;;;;;;;21.75;15.98;;;3.40;99.90;;;;;;5112672;28;20043;-56
2021/03/10 07:07:15;;;;;;;24.20;15.50;;;3.50;99.90;;;;;;5112889;28;20071;-56
2021/03/10 07:09:42;;;;;;;22.15;15.95;;;3.50;99.90;;;;;;5112369;28;20049;-56
2021/03/10 07:12:11;;;;;;;24.77;16.60;;;3.40;99.90;;;;;;5112462;28;20092;-56
2021/03/10 07:14:38;;;;;;;22.17;15.98;;;3.50;99.90;;;;;;5112745;28;20470;-55
2021/03/10 07:17:06;;;;;;;21.63;15.88;;;3.50;99.90;;;;;;5112587;28;20476;-56
2021/03/10 07:19:31;;;;;;;23.48;16.80;;;3.50;99.90;;;;;;5112819;28;20084;-56
2021/03/10 07:22:06;;;;;;;22.42;15.55;;;3.50;99.90;;;;;;5112335;28;20491;-55
2021/03/10 07:24:50;;;;;;;21.17;15.18;;;3.50;99.90;;;;;;5112424;28;20057;-55
2021/03/10 07:27:17;;;;;;;21.30;16.17;;;3.50;99.90;;;;;;5112240;28;20067;-56
2021/03/10 07:29:43;;;;;;;24.25;16.58;;;3.60;99.90;;;;;;5112481;28;20071;-56
2021/03/10 07:32:10;;;;;;;23.52;16.30;;;3.60;99.90;;;;;;5112304;28;20074;-56
2021/03/10 07:34:37;;;;;;;20.98;15.63;;;3.50;99.90;;;;;;5112097;28;20063;-56
2021/03/10 07:37:17;;;;;;;23.67;15.95;;;3.60;99.90;;;;;;5111710;28;20116;-56
2021/03/10 07:39:43;;;;;;;;;;;3.60;99.90;;;;;;5109596;28;20047;-56
2021/03/10 07:42:10;;;;;;;26.52;16.50;;;3.60;99.90;;;;;;5115006;28;19935;-56
2021/03/10 07:44:36;;;;;;;25.10;16.25;;;3.60;99.90;;;;;;5116101;28;20118;-56
2021/03/10 07:47:09;;;;;;;22.48;15.38;;;3.70;99.90;;;;;;5115873;28;20118;-56
2021/03/10 07:49:35;;;;;;;22.15;15.60;;;3.70;99.90;;;;;;5115926;28;20038;-56
2021/03/10 07:52:08;;;;;;;22.90;16.60;;;3.80;99.90;;;;;;5116245;28;20039;-56
2021/03/10 07:54:35;;;;;;;25.48;17.30;;;3.70;99.90;;;;;;5116112;28;20089;-56
2021/03/10 07:57:08;;;;;;;22.70;17.02;;;3.80;99.90;;;;;;5116005;28;20070;-55
2021/03/10 07:59:34;;;;;;;25.52;17.55;;;3.80;99.90;;;;;;5115834;28;20035;-56
2021/03/10 08:02:05;;;;;;;23.70;16.65;;;3.80;99.90;;;;;;5115932;28;20131;-56
2021/03/10 08:04:32;;;;;;;23.33;16.10;;;3.90;99.90;;;;;;5115637;28;20096;-55
2021/03/10 08:06:58;;;;;;;25.70;16.60;;;3.90;99.90;;;;;;5080636;28;20045;-56
2021/03/10 08:09:26;;;;;;;23.33;15.57;;;3.90;99.90;;;;;;5115655;28;20472;-56
2021/03/10 08:12:05;;;;;;;21.73;15.73;;;4.00;99.90;;;;;;5115814;28;20046;-56
2021/03/10 08:14:39;;;;;;;22.47;16.60;;;4.00;99.90;;;;;;5095769;28;20534;-58
2021/03/10 08:17:07;;;;;;;21.63;16.02;;;4.10;99.90;;;;;;5113224;28;20050;-57
2021/03/10 08:19:33;;;;;;;23.15;15.98;;;4.10;99.90;;;;;;5115704;28;20038;-57
2021/03/10 08:21:59;;;;;;;20.50;14.77;;;4.10;99.90;;;;;;5115410;28;20063;-58
2021/03/10 08:24:27;;;;;;;23.30;16.25;;;4.20;99.90;;;;;;5097507;28;20028;-57
2021/03/10 08:27:00;;;;;;;22.25;16.05;;;4.20;99.90;;;;;;5115876;28;20046;-57
2021/03/10 08:29:27;;;;;;;20.13;14.68;;;4.30;99.90;;;;;;5112848;28;20526;-57
2021/03/10 08:31:57;;;;;;;22.17;15.52;;;4.30;99.90;;;;;;5115285;28;20087;-57
2021/03/10 08:34:39;;;;;;;24.60;16.10;;;4.30;99.90;;;;;;5115718;28;20047;-57
2021/03/10 08:37:13;;;;;;;21.88;15.40;;;4.40;99.90;;;;;;5115322;28;20097;-57
2021/03/10 08:39:46;;;;;;;21.58;15.00;;;4.40;99.90;;;;;;5115825;28;20108;-57
2021/03/10 08:42:23;;;;;;;20.30;15.50;;;4.40;99.90;;;;;;5092689;28;20052;-57
2021/03/10 08:44:50;;;;;;;23.52;15.57;;;4.50;99.90;;;;;;5115230;28;20052;-57
2021/03/10 08:47:22;;;;;;;23.17;16.95;;;4.50;99.90;;;;;;5115622;28;20455;-57
2021/03/10 08:49:53;;;;;;;24.50;16.67;;;4.60;99.90;;;;;;5115649;28;20035;-57
2021/03/10 08:52:19;;;;;;;25.58;17.30;;;4.70;99.90;;;;;;5115297;28;20051;-57
2021/03/10 08:54:56;;;;;;;23.10;16.30;;;4.70;99.90;;;;;;5096367;28;20142;-57
2021/03/10 08:57:33;;;;;;;25.20;16.23;;;4.70;99.90;;;;;;5115336;28;20122;-57
2021/03/10 09:00:02;;;;;;;26.90;16.52;;;4.80;99.90;;;;;;5097105;28;20051;-57
2021/03/10 09:02:30;;;;;;;22.00;16.05;;;4.80;99.90;;;;;;5115440;28;20048;-57
2021/03/10 09:04:57;;;;;;;27.52;17.25;;;4.90;99.90;;;;;;5115203;28;20044;-57
2021/03/10 09:07:23;;;;;;;32.00;17.35;;;4.90;99.90;;;;;;5114925;28;20047;-57
2021/03/10 09:09:55;;;;;;;24.75;17.52;;;5.00;99.90;;;;;;5115088;28;20075;-57
2021/03/10 09:12:21;;;;;;;25.48;18.00;;;5.10;99.90;;;;;;5114846;28;20542;-57
2021/03/10 09:14:48;;;;;;;26.98;16.80;;;5.20;99.90;;;;;;5114812;28;20043;-57
2021/03/10 09:17:14;;;;;;;27.50;17.15;;;5.20;99.90;;;;;;5115148;28;20036;-57
2021/03/10 09:19:40;;;;;;;26.33;17.88;;;5.30;99.90;;;;;;5114636;28;20041;-57
2021/03/10 09:22:08;;;;;;;28.13;18.27;;;5.30;99.90;;;;;;5114491;28;20063;-57
2021/03/10 09:24:55;;;;;;;25.20;16.77;;;5.30;99.90;;;;;;5114826;28;20036;-57
2021/03/10 09:27:23;;;;;;;25.15;17.10;;;5.40;99.90;;;;;;5114517;28;20112;-57
2021/03/10 09:29:55;;;;;;;27.55;18.35;;;5.50;99.90;;;;;;5114374;28;20036;-57
2021/03/10 09:32:22;;;;;;;32.83;18.88;;;5.50;99.90;;;;;;5113968;28;20047;-57
2021/03/10 09:34:53;;;;;;;27.85;18.70;;;5.50;99.90;;;;;;5114370;28;20039;-57
2021/03/10 09:37:25;;;;;;;27.63;17.80;;;5.60;99.90;;;;;;5114705;28;20068;-57
2021/03/10 09:39:53;;;;;;;28.88;19.08;;;5.60;99.90;;;;;;5115024;28;20119;-58
2021/03/10 09:42:21;;;;;;;36.73;19.63;;;5.60;99.90;;;;;;5095749;28;20083;-57
2021/03/10 09:44:51;;;;;;;28.52;19.42;;;5.70;99.90;;;;;;5114521;28;20552;-58
2021/03/10 09:47:22;;;;;;;33.42;20.70;;;5.70;99.90;;;;;;5114322;28;20043;-58
2021/03/10 09:49:57;;;;;;;34.70;21.35;;;5.80;99.90;;;;;;5114475;28;20047;-57
2021/03/10 09:52:38;;;;;;;32.45;20.13;;;5.80;99.90;;;;;;5114261;28;20055;-57
2021/03/10 09:55:08;;;;;;;30.63;20.38;;;5.80;99.90;;;;;;5113973;28;20405;-57
2021/03/10 09:57:34;;;;;;;31.05;20.00;;;5.90;99.90;;;;;;5113845;28;20502;-58
2021/03/10 10:00:00;;;;;;;38.45;21.30;;;5.90;99.90;;;;;;5114116;28;20181;-57
2021/03/10 10:02:28;;;;;;;34.53;20.83;;;5.90;99.90;;;;;;5114153;28;20047;-58
2021/03/10 10:05:03;;;;;;;30.73;20.48;;;6.00;99.90;;;;;;5094783;28;20048;-57
2021/03/10 10:07:30;;;;;;;35.25;21.13;;;6.10;99.90;;;;;;5114160;28;20040;-58
2021/03/10 10:09:57;;;;;;;31.48;20.85;;;6.00;99.90;;;;;;5113841;28;20085;-58
2021/03/10 10:12:23;;;;;;;35.40;21.73;;;6.00;99.90;;;;;;5113724;28;20119;-57
2021/03/10 10:14:50;;;;;;;35.53;21.58;;;6.10;99.90;;;;;;5113718;28;20492;-58
2021/03/10 10:17:16;;;;;;;34.53;21.45;;;6.10;99.90;;;;;;5113708;28;20043;-57
2021/03/10 10:19:43;;;;;;;34.25;22.77;;;6.10;99.90;;;;;;5113659;28;20047;-57
2021/03/10 10:22:09;;;;;;;32.60;22.30;;;6.10;99.90;;;;;;5095273;28;20039;-58
2021/03/10 10:24:35;;;;;;;33.92;22.23;;;6.10;99.90;;;;;;5113749;28;20054;-58
2021/03/10 10:27:01;;;;;;;36.63;21.95;;;6.20;99.90;;;;;;5113450;28;20039;-58
2021/03/10 10:29:27;;;;;;;35.03;22.50;;;6.30;99.90;;;;;;5113405;28;20032;-58
2021/03/10 10:31:53;;;;;;;37.95;22.25;;;6.30;99.90;;;;;;5113755;28;20043;-57
2021/03/10 10:34:19;;;;;;;35.88;23.85;;;6.30;99.90;;;;;;5113364;28;20047;-58
2021/03/10 10:36:44;;;;;;;36.45;23.02;;;6.40;99.90;;;;;;5113114;28;20044;-58
2021/03/10 10:39:10;;;;;;;38.95;23.25;;;6.40;99.90;;;;;;5113325;28;20053;-58
2021/03/10 10:41:36;;;;;;;34.55;22.85;;;6.50;99.90;;;;;;5112883;28;20051;-58
2021/03/10 10:44:02;;;;;;;38.60;23.70;;;6.50;99.90;;;;;;5113180;28;20473;-58
2021/03/10 10:46:28;;;;;;;34.08;22.38;;;6.50;99.90;;;;;;5113223;28;20050;-58
2021/03/10 10:48:54;;;;;;;33.47;22.83;;;6.60;99.90;;;;;;5113252;28;20035;-57
2021/03/10 10:51:21;;;;;;;33.53;22.13;;;6.60;99.90;;;;;;5112754;28;20496;-58
2021/03/10 10:53:47;;;;;;;31.85;22.27;;;6.60;99.90;;;;;;5112899;28;20481;-58
2021/03/10 10:56:13;;;;;;;32.83;21.75;;;6.60;99.90;;;;;;5112955;28;20071;-58
2021/03/10 10:58:39;;;;;;;36.25;22.38;;;6.60;99.90;;;;;;5113165;28;20078;-58
2021/03/10 11:01:04;;;;;;;30.23;20.77;;;6.60;99.90;;;;;;5112983;28;20161;-58
2021/03/10 11:03:30;;;;;;;39.28;22.65;;;6.60;99.90;;;;;;5113181;28;20181;-58
2021/03/10 11:05:56;;;;;;;36.85;23.27;;;6.70;99.90;;;;;;5113029;28;20040;-58
2021/03/10 11:08:22;;;;;;;37.10;22.20;;;6.70;99.90;;;;;;5112750;28;20043;-58
2021/03/10 11:10:48;;;;;;;34.47;21.48;;;6.70;99.90;;;;;;5094192;28;20092;-58
2021/03/10 11:13:13;;;;;;;32.45;21.30;;;6.80;99.90;;;;;;5112761;28;20447;-58
2021/03/10 11:15:39;;;;;;;32.75;21.75;;;6.80;99.90;;;;;;5111839;28;20177;-58
2021/03/10 11:18:05;;;;;;;30.38;21.65;;;6.80;99.90;;;;;;5112882;28;20056;-58
2021/03/10 11:20:31;;;;;;;30.95;21.05;;;6.80;99.90;;;;;;5112591;28;20461;-58
2021/03/10 11:22:56;;;;;;;32.42;21.60;;;6.80;99.90;;;;;;5112843;28;20047;-58
2021/03/10 11:25:22;;;;;;;32.85;21.27;;;6.90;99.90;;;;;;5112802;28;20197;-58
2021/03/10 11:27:48;;;;;;;33.88;21.90;;;6.90;99.90;;;;;;5112502;28;20058;-57
2021/03/10 11:30:14;;;;;;;30.42;21.15;;;6.90;99.90;;;;;;5112469;28;20133;-57
2021/03/10 11:32:40;;;;;;;39.67;22.67;;;6.90;99.90;;;;;;5112525;28;20062;-58
2021/03/10 11:35:07;;;;;;;32.83;22.83;;;6.90;99.90;;;;;;5112572;28;20477;-58
2021/03/10 11:37:33;;;;;;;34.90;22.63;;;6.90;99.90;;;;;;5112209;28;20078;-57
2021/03/10 11:39:59;;;;;;;30.75;21.13;;;7.00;99.90;;;;;;5112595;28;20044;-58
2021/03/10 11:42:25;;;;;;;35.45;21.88;;;7.00;99.90;;;;;;5112085;28;20055;-57
2021/03/10 11:44:52;;;;;;;33.28;22.17;;;7.00;99.90;;;;;;5112451;28;20051;-58
2021/03/10 11:47:18;;;;;;;34.60;23.48;;;7.00;99.90;;;;;;5112526;28;20544;-57
2021/03/10 11:49:43;;;;;;;32.60;22.63;;;7.00;99.90;;;;;;5112663;28;20134;-57
2021/03/10 11:52:09;;;;;;;32.47;22.50;;;7.00;99.90;;;;;;5112595;28;20055;-58
2021/03/10 11:54:35;;;;;;;34.03;22.17;;;7.10;99.90;;;;;;5112527;28;20052;-57
2021/03/10 11:57:01;;;;;;;32.25;21.65;;;7.10;99.90;;;;;;5112304;28;20092;-57
2021/03/10 11:59:26;;;;;;;30.88;22.20;;;7.10;99.90;;;;;;5112420;28;20392;-58
2021/03/10 12:01:52;;;;;;;35.30;22.67;;;7.20;99.90;;;;;;5112509;28;20048;-58
2021/03/10 12:04:18;;;;;;;34.22;23.17;;;7.20;99.90;;;;;;5112378;28;20139;-57
2021/03/10 12:06:44;;;;;;;41.20;24.00;;;7.20;99.90;;;;;;5112064;28;20481;-58
2021/03/10 12:09:10;;;;;;;33.17;22.33;;;7.30;99.90;;;;;;5112145;28;20156;-58
2021/03/10 12:11:35;;;;;;;35.50;23.80;;;7.30;99.90;;;;;;5112207;28;20054;-58
2021/03/10 12:14:01;;;;;;;35.47;23.23;;;7.30;99.90;;;;;;5111975;28;20047;-58
2021/03/10 12:16:27;;;;;;;32.83;22.23;;;7.30;99.90;;;;;;5111901;28;20039;-58
2021/03/10 12:18:53;;;;;;;33.63;23.17;;;7.30;99.90;;;;;;5093874;28;20465;-57
2021/03/10 12:21:19;;;;;;;31.60;22.08;;;7.30;99.90;;;;;;5093882;28;20035;-58
2021/03/10 12:23:44;;;;;;;36.97;23.13;;;7.30;99.90;;;;;;5112186;28;20124;-57
2021/03/10 12:26:10;;;;;;;31.67;21.33;;;7.30;99.90;;;;;;5112095;28;20123;-58
2021/03/10 12:28:36;;;;;;;30.77;21.48;;;7.40;99.90;;;;;;5115778;28;20043;-58
2021/03/10 12:31:02;;;;;;;32.30;21.27;;;7.40;99.90;;;;;;5116288;28;20451;-57
2021/03/10 12:33:29;;;;;;;30.92;21.35;;;7.50;99.90;;;;;;5116130;28;20047;-58
2021/03/10 12:35:54;;;;;;;32.25;22.48;;;7.50;99.90;;;;;;5116085;28;20074;-58
2021/03/10 12:38:20;;;;;;;34.63;22.23;;;7.60;99.90;;;;;;5115477;28;20433;-57
2021/03/10 12:40:46;;;;;;;36.00;22.50;;;7.60;99.90;;;;;;5115367;28;20040;-57
2021/03/10 12:43:11;;;;;;;29.65;20.85;;;7.60;99.90;;;;;;5115428;28;20081;-57
2021/03/10 12:45:38;;;;;;;32.75;21.98;;;7.60;99.90;;;;;;5115839;28;20047;-58